sensor_id;sensor_type;location;lat;lon;timestamp;temperature;humidity
15481;DHT22;7842;50.904;6.670;2023-03-31T00:00:51;12.90;99.90
15481;DHT22;7842;50.904;6.670;2023-03-31T00:03:17;12.20;99.90
15481;DHT22;7842;50.904;6.670;2023-03-31T00:05:46;13.60;99.90
15481;DHT22;7842;50.904;6.670;2023-03-31T00:08:12;11.80;99.90
15481;DHT22;7842;50.904;6.670;2023-03-31T00:10:43;13.20;99.90
15481;DHT22;7842;50.904;6.670;2023-03-31T00:13:10;11.70;99.90
15481;DHT22;7842;50.904;6.670;2023-03-31T00:15:35;11.70;99.90
15481;DHT22;7842;50.904;6.670;2023-03-31T00:18:01;11.60;99.90
15481;DHT22;7842;50.904;6.670;2023-03-31T00:20:27;11.60;99.90
15481;DHT22;7842;50.904;6.670;2023-03-31T00:22:53;11.60;99.90
15481;DHT22;7842;50.904;6.670;2023-03-31T00:25:19;11.60;99.90
15481;DHT22;7842;50.904;6.670;2023-03-31T00:27:45;11.60;99.90
15481;DHT22;7842;50.904;6.670;2023-03-31T00:30:14;11.60;99.90
15481;DHT22;7842;50.904;6.670;2023-03-31T00:32:43;11.60;99.90
15481;DHT22;7842;50.904;6.670;2023-03-31T00:35:09;11.60;99.90
15481;DHT22;7842;50.904;6.670;2023-03-31T00:37:35;11.60;99.90
15481;DHT22;7842;50.904;6.670;2023-03-31T00:40:01;11.50;99.90
15481;DHT22;7842;50.904;6.670;2023-03-31T00:42:33;11.50;99.90
15481;DHT22;7842;50.904;6.670;2023-03-31T00:47:51;11.40;99.90
15481;DHT22;7842;50.904;6.670;2023-03-31T00:50:21;11.40;99.90
15481;DHT22;7842;50.904;6.670;2023-03-31T00:52:50;11.60;99.90
15481;DHT22;7842;50.904;6.670;2023-03-31T00:55:24;13.50;99.90
15481;DHT22;7842;50.904;6.670;2023-03-31T00:57:53;11.30;99.90
15481;DHT22;7842;50.904;6.670;2023-03-31T01:00:20;12.00;99.90
15481;DHT22;7842;50.904;6.670;2023-03-31T01:02:52;11.30;99.90
15481;DHT22;7842;50.904;6.670;2023-03-31T01:05:24;6.70;99.90
15481;DHT22;7842;50.904;6.670;2023-03-31T01:07:51;11.30;99.90
15481;DHT22;7842;50.904;6.670;2023-03-31T01:10:18;13.50;99.90
15481;DHT22;7842;50.904;6.670;2023-03-31T01:12:48;11.20;99.90
15481;DHT22;7842;50.904;6.670;2023-03-31T01:15:14;11.30;99.90
15481;DHT22;7842;50.904;6.670;2023-03-31T01:17:41;11.20;99.90
15481;DHT22;7842;50.904;6.670;2023-03-31T01:23:21;11.30;99.90
15481;DHT22;7842;50.904;6.670;2023-03-31T01:34:17;11.40;99.90
15481;DHT22;7842;50.904;6.670;2023-03-31T01:37:14;11.50;99.90
15481;DHT22;7842;50.904;6.670;2023-03-31T01:40:07;11.50;99.90
15481;DHT22;7842;50.904;6.670;2023-03-31T01:43:01;11.60;99.90
15481;DHT22;7842;50.904;6.670;2023-03-31T01:46:01;11.60;99.90
15481;DHT22;7842;50.904;6.670;2023-03-31T01:48:38;11.60;99.90
15481;DHT22;7842;50.904;6.670;2023-03-31T01:51:11;11.60;99.90
15481;DHT22;7842;50.904;6.670;2023-03-31T01:54:02;11.60;99.90
15481;DHT22;7842;50.904;6.670;2023-03-31T01:56:39;11.60;99.90
15481;DHT22;7842;50.904;6.670;2023-03-31T01:59:27;11.60;99.90
15481;DHT22;7842;50.904;6.670;2023-03-31T02:02:07;11.50;99.90
15481;DHT22;7842;50.904;6.670;2023-03-31T02:04:47;11.50;99.90
15481;DHT22;7842;50.904;6.670;2023-03-31T02:07:18;11.50;99.90
15481;DHT22;7842;50.904;6.670;2023-03-31T02:09:52;11.50;99.90
15481;DHT22;7842;50.904;6.670;2023-03-31T02:12:21;11.50;99.90
15481;DHT22;7842;50.904;6.670;2023-03-31T02:14:51;11.50;99.90
15481;DHT22;7842;50.904;6.670;2023-03-31T02:17:20;11.60;99.90
15481;DHT22;7842;50.904;6.670;2023-03-31T02:19:49;11.50;99.90
15481;DHT22;7842;50.904;6.670;2023-03-31T02:22:18;11.50;99.90
15481;DHT22;7842;50.904;6.670;2023-03-31T02:24:47;11.50;99.90
15481;DHT22;7842;50.904;6.670;2023-03-31T02:27:21;11.50;99.90
15481;DHT22;7842;50.904;6.670;2023-03-31T02:29:48;11.50;99.90
15481;DHT22;7842;50.904;6.670;2023-03-31T02:32:15;11.50;99.90
15481;DHT22;7842;50.904;6.670;2023-03-31T02:34:44;11.50;99.90
15481;DHT22;7842;50.904;6.670;2023-03-31T02:37:11;11.50;99.90
15481;DHT22;7842;50.904;6.670;2023-03-31T02:39:39;11.50;99.90
15481;DHT22;7842;50.904;6.670;2023-03-31T02:42:06;11.50;99.90
15481;DHT22;7842;50.904;6.670;2023-03-31T02:44:36;14.20;99.90
15481;DHT22;7842;50.904;6.670;2023-03-31T02:47:08;11.40;99.90
15481;DHT22;7842;50.904;6.670;2023-03-31T02:49:37;11.40;99.90
15481;DHT22;7842;50.904;6.670;2023-03-31T02:52:45;11.40;99.90
15481;DHT22;7842;50.904;6.670;2023-03-31T03:09:21;11.40;99.90
15481;DHT22;7842;50.904;6.670;2023-03-31T03:17:08;11.40;99.90
15481;DHT22;7842;50.904;6.670;2023-03-31T03:19:35;11.30;99.90
15481;DHT22;7842;50.904;6.670;2023-03-31T03:22:00;11.20;99.90
15481;DHT22;7842;50.904;6.670;2023-03-31T03:24:29;11.20;99.90
15481;DHT22;7842;50.904;6.670;2023-03-31T03:26:58;11.20;99.90
15481;DHT22;7842;50.904;6.670;2023-03-31T03:29:24;11.20;99.90
15481;DHT22;7842;50.904;6.670;2023-03-31T03:31:51;13.10;99.90
15481;DHT22;7842;50.904;6.670;2023-03-31T03:34:17;11.20;99.90
15481;DHT22;7842;50.904;6.670;2023-03-31T03:36:44;11.20;99.90
15481;DHT22;7842;50.904;6.670;2023-03-31T03:39:10;11.20;99.90
15481;DHT22;7842;50.904;6.670;2023-03-31T03:41:36;11.20;99.90
15481;DHT22;7842;50.904;6.670;2023-03-31T03:44:02;11.20;99.90
15481;DHT22;7842;50.904;6.670;2023-03-31T03:46:28;11.20;99.90
15481;DHT22;7842;50.904;6.670;2023-03-31T03:48:54;11.20;99.90
15481;DHT22;7842;50.904;6.670;2023-03-31T03:51:21;11.20;99.90
15481;DHT22;7842;50.904;6.670;2023-03-31T03:53:46;11.20;99.90
15481;DHT22;7842;50.904;6.670;2023-03-31T03:56:12;11.20;99.90
15481;DHT22;7842;50.904;6.670;2023-03-31T03:58:38;11.10;99.90
15481;DHT22;7842;50.904;6.670;2023-03-31T04:01:06;11.10;99.90
15481;DHT22;7842;50.904;6.670;2023-03-31T04:03:32;11.10;99.90
15481;DHT22;7842;50.904;6.670;2023-03-31T04:05:57;11.10;99.90
15481;DHT22;7842;50.904;6.670;2023-03-31T04:08:23;11.00;99.90
15481;DHT22;7842;50.904;6.670;2023-03-31T04:10:49;11.10;99.90
15481;DHT22;7842;50.904;6.670;2023-03-31T04:13:15;12.60;99.90
15481;DHT22;7842;50.904;6.670;2023-03-31T04:15:41;11.10;99.90
15481;DHT22;7842;50.904;6.670;2023-03-31T04:18:08;11.10;99.90
15481;DHT22;7842;50.904;6.670;2023-03-31T04:25:45;11.20;99.90
15481;DHT22;7842;50.904;6.670;2023-03-31T05:36:51;11.70;99.90
15481;DHT22;7842;50.904;6.670;2023-03-31T05:39:18;11.70;99.90
15481;DHT22;7842;50.904;6.670;2023-03-31T05:44:10;11.70;99.90
15481;DHT22;7842;50.904;6.670;2023-03-31T05:56:25;11.80;99.90
15481;DHT22;7842;50.904;6.670;2023-03-31T06:01:17;11.90;99.90
15481;DHT22;7842;50.904;6.670;2023-03-31T06:03:48;11.90;99.90
15481;DHT22;7842;50.904;6.670;2023-03-31T06:06:14;12.80;99.90
15481;DHT22;7842;50.904;6.670;2023-03-31T06:08:41;13.40;99.90
15481;DHT22;7842;50.904;6.670;2023-03-31T06:11:10;11.90;99.90
15481;DHT22;7842;50.904;6.670;2023-03-31T06:13:37;11.80;99.90
15481;DHT22;7842;50.904;6.670;2023-03-31T06:16:04;11.70;99.90
15481;DHT22;7842;50.904;6.670;2023-03-31T06:18:31;11.60;99.90
15481;DHT22;7842;50.904;6.670;2023-03-31T06:20:57;13.20;99.90
15481;DHT22;7842;50.904;6.670;2023-03-31T06:23:24;11.50;99.90
15481;DHT22;7842;50.904;6.670;2023-03-31T06:25:50;11.20;99.90
15481;DHT22;7842;50.904;6.670;2023-03-31T06:28:16;11.30;99.90
15481;DHT22;7842;50.904;6.670;2023-03-31T06:30:42;11.30;99.90
15481;DHT22;7842;50.904;6.670;2023-03-31T06:33:08;11.30;99.90
15481;DHT22;7842;50.904;6.670;2023-03-31T06:35:37;11.40;99.90
15481;DHT22;7842;50.904;6.670;2023-03-31T06:38:02;11.50;99.90
15481;DHT22;7842;50.904;6.670;2023-03-31T06:40:28;11.50;99.90
15481;DHT22;7842;50.904;6.670;2023-03-31T06:42:54;11.50;99.90
15481;DHT22;7842;50.904;6.670;2023-03-31T06:45:20;11.50;99.90
15481;DHT22;7842;50.904;6.670;2023-03-31T06:47:46;11.60;99.90
15481;DHT22;7842;50.904;6.670;2023-03-31T06:50:11;11.80;99.90
15481;DHT22;7842;50.904;6.670;2023-03-31T06:52:37;12.20;99.90
15481;DHT22;7842;50.904;6.670;2023-03-31T06:55:05;12.60;99.90
15481;DHT22;7842;50.904;6.670;2023-03-31T07:09:42;12.60;99.90
15481;DHT22;7842;50.904;6.670;2023-03-31T07:12:08;12.60;99.90
15481;DHT22;7842;50.904;6.670;2023-03-31T07:29:13;12.90;99.90
15481;DHT22;7842;50.904;6.670;2023-03-31T07:31:39;12.90;99.90
15481;DHT22;7842;50.904;6.670;2023-03-31T07:34:04;12.80;99.90
15481;DHT22;7842;50.904;6.670;2023-03-31T07:36:30;14.50;99.90
15481;DHT22;7842;50.904;6.670;2023-03-31T07:38:56;12.90;99.90
15481;DHT22;7842;50.904;6.670;2023-03-31T07:41:22;12.90;99.90
15481;DHT22;7842;50.904;6.670;2023-03-31T07:43:49;12.90;99.90
15481;DHT22;7842;50.904;6.670;2023-03-31T07:46:17;13.10;99.90
15481;DHT22;7842;50.904;6.670;2023-03-31T07:48:44;13.20;99.90
15481;DHT22;7842;50.904;6.670;2023-03-31T07:51:13;14.80;99.90
15481;DHT22;7842;50.904;6.670;2023-03-31T07:53:39;13.80;99.90
15481;DHT22;7842;50.904;6.670;2023-03-31T07:56:04;14.40;99.90
15481;DHT22;7842;50.904;6.670;2023-03-31T07:58:30;13.80;99.90
15481;DHT22;7842;50.904;6.670;2023-03-31T08:00:56;13.70;99.90
15481;DHT22;7842;50.904;6.670;2023-03-31T08:05:51;13.40;99.90
15481;DHT22;7842;50.904;6.670;2023-03-31T08:08:16;13.40;99.90
15481;DHT22;7842;50.904;6.670;2023-03-31T08:10:42;13.30;99.90
15481;DHT22;7842;50.904;6.670;2023-03-31T08:13:08;13.40;99.90
15481;DHT22;7842;50.904;6.670;2023-03-31T08:18:03;13.50;99.90
15481;DHT22;7842;50.904;6.670;2023-03-31T08:22:55;13.50;99.90
15481;DHT22;7842;50.904;6.670;2023-03-31T08:35:08;13.80;99.90
15481;DHT22;7842;50.904;6.670;2023-03-31T08:37:35;14.10;99.90
15481;DHT22;7842;50.904;6.670;2023-03-31T08:40:05;14.00;99.90
15481;DHT22;7842;50.904;6.670;2023-03-31T09:26:49;15.10;99.90
15481;DHT22;7842;50.904;6.670;2023-03-31T09:31:49;14.90;99.90
15481;DHT22;7842;50.904;6.670;2023-03-31T09:34:33;14.90;99.90
15481;DHT22;7842;50.904;6.670;2023-03-31T09:36:59;14.80;99.90
15481;DHT22;7842;50.904;6.670;2023-03-31T09:39:25;14.90;99.90
15481;DHT22;7842;50.904;6.670;2023-03-31T09:59:16;15.20;99.90
15481;DHT22;7842;50.904;6.670;2023-03-31T10:04:16;15.20;99.90
15481;DHT22;7842;50.904;6.670;2023-03-31T10:06:43;15.20;99.90
15481;DHT22;7842;50.904;6.670;2023-03-31T10:11:36;15.20;99.90
15481;DHT22;7842;50.904;6.670;2023-03-31T10:14:13;15.30;99.90
15481;DHT22;7842;50.904;6.670;2023-03-31T10:16:43;15.30;99.90
15481;DHT22;7842;50.904;6.670;2023-03-31T10:21:37;15.30;99.90
15481;DHT22;7842;50.904;6.670;2023-03-31T10:26:33;15.30;99.90
15481;DHT22;7842;50.904;6.670;2023-03-31T10:36:31;15.40;99.90
15481;DHT22;7842;50.904;6.670;2023-03-31T10:38:57;15.30;99.90
15481;DHT22;7842;50.904;6.670;2023-03-31T10:41:26;15.20;99.90
15481;DHT22;7842;50.904;6.670;2023-03-31T10:43:54;15.10;99.90
15481;DHT22;7842;50.904;6.670;2023-03-31T10:46:21;15.00;99.90
15481;DHT22;7842;50.904;6.670;2023-03-31T10:51:55;14.90;99.90
15481;DHT22;7842;50.904;6.670;2023-03-31T10:54:22;14.80;99.90
15481;DHT22;7842;50.904;6.670;2023-03-31T10:56:58;14.70;99.90
15481;DHT22;7842;50.904;6.670;2023-03-31T11:02:19;14.50;99.90
15481;DHT22;7842;50.904;6.670;2023-03-31T11:05:18;14.30;99.90
15481;DHT22;7842;50.904;6.670;2023-03-31T11:08:02;13.40;99.90
15481;DHT22;7842;50.904;6.670;2023-03-31T11:13:16;13.30;99.90
15481;DHT22;7842;50.904;6.670;2023-03-31T11:19:00;13.30;99.90
15481;DHT22;7842;50.904;6.670;2023-03-31T11:27:30;13.60;99.90
15481;DHT22;7842;50.904;6.670;2023-03-31T11:33:00;13.90;99.90
15481;DHT22;7842;50.904;6.670;2023-03-31T11:46:03;14.90;99.90
15481;DHT22;7842;50.904;6.670;2023-03-31T11:48:50;15.00;99.90
15481;DHT22;7842;50.904;6.670;2023-03-31T11:54:07;15.10;99.90
15481;DHT22;7842;50.904;6.670;2023-03-31T11:56:39;15.10;99.90
15481;DHT22;7842;50.904;6.670;2023-03-31T11:59:06;15.10;99.90
15481;DHT22;7842;50.904;6.670;2023-03-31T12:04:42;15.40;99.90
15481;DHT22;7842;50.904;6.670;2023-03-31T12:10:21;15.50;99.90
15481;DHT22;7842;50.904;6.670;2023-03-31T12:12:54;15.50;99.90
15481;DHT22;7842;50.904;6.670;2023-03-31T12:15:24;15.50;99.90
15481;DHT22;7842;50.904;6.670;2023-03-31T12:18:07;15.50;99.90
15481;DHT22;7842;50.904;6.670;2023-03-31T12:20:38;15.60;99.90
15481;DHT22;7842;50.904;6.670;2023-03-31T12:23:12;15.50;99.90
15481;DHT22;7842;50.904;6.670;2023-03-31T12:25:52;16.20;99.90
15481;DHT22;7842;50.904;6.670;2023-03-31T12:28:19;15.60;99.90
15481;DHT22;7842;50.904;6.670;2023-03-31T12:30:46;15.60;99.90
15481;DHT22;7842;50.904;6.670;2023-03-31T12:44:21;15.60;99.90
15481;DHT22;7842;50.904;6.670;2023-03-31T12:52:58;15.00;99.90
15481;DHT22;7842;50.904;6.670;2023-03-31T13:21:23;15.00;99.90
15481;DHT22;7842;50.904;6.670;2023-03-31T13:45:26;16.00;99.90
15481;DHT22;7842;50.904;6.670;2023-03-31T13:48:17;16.10;99.90
15481;DHT22;7842;50.904;6.670;2023-03-31T13:53:36;16.10;99.90
15481;DHT22;7842;50.904;6.670;2023-03-31T14:07:19;15.60;99.90
15481;DHT22;7842;50.904;6.670;2023-03-31T14:09:46;15.50;99.90
15481;DHT22;7842;50.904;6.670;2023-03-31T14:12:43;15.40;99.90
15481;DHT22;7842;50.904;6.670;2023-03-31T14:15:18;17.60;99.90
15481;DHT22;7842;50.904;6.670;2023-03-31T14:17:44;15.40;99.90
15481;DHT22;7842;50.904;6.670;2023-03-31T14:20:37;16.00;99.90
15481;DHT22;7842;50.904;6.670;2023-03-31T14:26:20;15.60;99.90
15481;DHT22;7842;50.904;6.670;2023-03-31T14:35:57;15.50;99.90
15481;DHT22;7842;50.904;6.670;2023-03-31T14:37:53;15.50;99.90
15481;DHT22;7842;50.904;6.670;2023-03-31T14:40:20;15.50;99.90
15481;DHT22;7842;50.904;6.670;2023-03-31T14:42:46;15.60;99.90
15481;DHT22;7842;50.904;6.670;2023-03-31T14:48:09;15.50;99.90
15481;DHT22;7842;50.904;6.670;2023-03-31T14:50:42;15.50;99.90
15481;DHT22;7842;50.904;6.670;2023-03-31T14:53:23;17.10;99.90
15481;DHT22;7842;50.904;6.670;2023-03-31T14:56:01;15.40;99.90
15481;DHT22;7842;50.904;6.670;2023-03-31T14:58:36;15.40;99.90
15481;DHT22;7842;50.904;6.670;2023-03-31T15:01:05;15.30;99.90
15481;DHT22;7842;50.904;6.670;2023-03-31T15:03:33;15.40;99.90
15481;DHT22;7842;50.904;6.670;2023-03-31T15:06:00;15.40;99.90
15481;DHT22;7842;50.904;6.670;2023-03-31T15:08:27;15.40;99.90
15481;DHT22;7842;50.904;6.670;2023-03-31T15:11:00;15.50;99.90
15481;DHT22;7842;50.904;6.670;2023-03-31T15:13:41;15.30;99.90
15481;DHT22;7842;50.904;6.670;2023-03-31T15:19:23;15.20;99.90
15481;DHT22;7842;50.904;6.670;2023-03-31T15:24:46;15.00;99.90
15481;DHT22;7842;50.904;6.670;2023-03-31T15:27:20;14.60;99.90
15481;DHT22;7842;50.904;6.670;2023-03-31T15:29:48;14.80;99.90
15481;DHT22;7842;50.904;6.670;2023-03-31T15:32:24;14.70;99.90
15481;DHT22;7842;50.904;6.670;2023-03-31T15:34:50;14.70;99.90
15481;DHT22;7842;50.904;6.670;2023-03-31T15:37:23;14.30;99.90
15481;DHT22;7842;50.904;6.670;2023-03-31T15:39:55;14.20;99.90
15481;DHT22;7842;50.904;6.670;2023-03-31T16:33:04;13.00;99.90
15481;DHT22;7842;50.904;6.670;2023-03-31T17:19:42;13.20;99.90
15481;DHT22;7842;50.904;6.670;2023-03-31T17:22:11;13.20;99.90
15481;DHT22;7842;50.904;6.670;2023-03-31T17:27:03;13.20;99.90
15481;DHT22;7842;50.904;6.670;2023-03-31T17:34:21;13.00;99.90
15481;DHT22;7842;50.904;6.670;2023-03-31T17:36:46;12.90;99.90
15481;DHT22;7842;50.904;6.670;2023-03-31T17:46:34;12.70;99.90
15481;DHT22;7842;50.904;6.670;2023-03-31T17:51:26;12.70;99.90
15481;DHT22;7842;50.904;6.670;2023-03-31T17:53:53;12.50;99.90
15481;DHT22;7842;50.904;6.670;2023-03-31T17:56:18;12.60;99.90
15481;DHT22;7842;50.904;6.670;2023-03-31T17:58:44;12.60;99.90
15481;DHT22;7842;50.904;6.670;2023-03-31T18:01:11;12.80;99.90
15481;DHT22;7842;50.904;6.670;2023-03-31T18:03:36;13.90;99.90
15481;DHT22;7842;50.904;6.670;2023-03-31T18:06:07;13.60;99.90
15481;DHT22;7842;50.904;6.670;2023-03-31T18:08:33;12.50;99.90
15481;DHT22;7842;50.904;6.670;2023-03-31T18:11:00;14.00;99.90
15481;DHT22;7842;50.904;6.670;2023-03-31T18:13:26;12.50;99.90
15481;DHT22;7842;50.904;6.670;2023-03-31T18:15:52;13.00;99.90
15481;DHT22;7842;50.904;6.670;2023-03-31T18:18:18;14.00;99.90
15481;DHT22;7842;50.904;6.670;2023-03-31T18:20:47;13.70;99.90
15481;DHT22;7842;50.904;6.670;2023-03-31T18:23:13;12.30;99.90
15481;DHT22;7842;50.904;6.670;2023-03-31T18:25:41;12.20;99.90
15481;DHT22;7842;50.904;6.670;2023-03-31T18:28:12;12.20;99.90
15481;DHT22;7842;50.904;6.670;2023-03-31T18:30:38;12.10;99.90
15481;DHT22;7842;50.904;6.670;2023-03-31T18:33:04;11.90;99.90
15481;DHT22;7842;50.904;6.670;2023-03-31T19:12:45;11.60;99.90
15481;DHT22;7842;50.904;6.670;2023-03-31T19:17:41;11.60;99.90
15481;DHT22;7842;50.904;6.670;2023-03-31T19:20:10;15.00;99.90
15481;DHT22;7842;50.904;6.670;2023-03-31T19:22:48;11.50;99.90
15481;DHT22;7842;50.904;6.670;2023-03-31T19:25:15;11.50;99.90
15481;DHT22;7842;50.904;6.670;2023-03-31T19:30:16;11.60;99.90
15481;DHT22;7842;50.904;6.670;2023-03-31T19:32:43;11.50;99.90
15481;DHT22;7842;50.904;6.670;2023-03-31T19:35:12;11.40;99.90
15481;DHT22;7842;50.904;6.670;2023-03-31T19:37:40;11.50;99.90
15481;DHT22;7842;50.904;6.670;2023-03-31T19:42:47;11.50;99.90
15481;DHT22;7842;50.904;6.670;2023-03-31T19:45:18;11.50;99.90
15481;DHT22;7842;50.904;6.670;2023-03-31T20:09:43;11.70;99.90
15481;DHT22;7842;50.904;6.670;2023-03-31T20:12:10;11.70;99.90
15481;DHT22;7842;50.904;6.670;2023-03-31T20:14:36;11.70;99.90
15481;DHT22;7842;50.904;6.670;2023-03-31T20:19:30;11.60;99.90
15481;DHT22;7842;50.904;6.670;2023-03-31T20:21:56;11.70;99.90
15481;DHT22;7842;50.904;6.670;2023-03-31T20:29:15;11.60;99.90
15481;DHT22;7842;50.904;6.670;2023-03-31T20:31:41;13.60;99.90
15481;DHT22;7842;50.904;6.670;2023-03-31T20:34:11;11.60;99.90
15481;DHT22;7842;50.904;6.670;2023-03-31T20:36:42;11.60;99.90
15481;DHT22;7842;50.904;6.670;2023-03-31T20:39:09;11.90;99.90
15481;DHT22;7842;50.904;6.670;2023-03-31T20:41:36;13.50;99.90
15481;DHT22;7842;50.904;6.670;2023-03-31T20:44:02;11.60;99.90
15481;DHT22;7842;50.904;6.670;2023-03-31T20:46:30;11.50;99.90
15481;DHT22;7842;50.904;6.670;2023-03-31T20:48:58;11.60;99.90
15481;DHT22;7842;50.904;6.670;2023-03-31T20:51:30;11.50;99.90
15481;DHT22;7842;50.904;6.670;2023-03-31T20:53:59;11.50;99.90
15481;DHT22;7842;50.904;6.670;2023-03-31T20:56:27;11.50;99.90
15481;DHT22;7842;50.904;6.670;2023-03-31T20:58:53;11.50;99.90
15481;DHT22;7842;50.904;6.670;2023-03-31T21:03:51;11.60;99.90
15481;DHT22;7842;50.904;6.670;2023-03-31T21:06:17;12.10;99.90
15481;DHT22;7842;50.904;6.670;2023-03-31T21:08:44;11.40;99.90
15481;DHT22;7842;50.904;6.670;2023-03-31T21:11:12;11.60;99.90
15481;DHT22;7842;50.904;6.670;2023-03-31T21:13:38;11.40;99.90
15481;DHT22;7842;50.904;6.670;2023-03-31T21:18:32;11.50;99.90
15481;DHT22;7842;50.904;6.670;2023-03-31T21:21:01;11.50;99.90
15481;DHT22;7842;50.904;6.670;2023-03-31T21:25:57;11.50;99.90
15481;DHT22;7842;50.904;6.670;2023-03-31T21:28:25;11.50;99.90
15481;DHT22;7842;50.904;6.670;2023-03-31T21:30:53;11.50;99.90
15481;DHT22;7842;50.904;6.670;2023-03-31T21:33:20;12.00;99.90
15481;DHT22;7842;50.904;6.670;2023-03-31T21:35:47;12.90;99.90
15481;DHT22;7842;50.904;6.670;2023-03-31T21:38:16;11.40;99.90
15481;DHT22;7842;50.904;6.670;2023-03-31T21:40:45;11.40;99.90
15481;DHT22;7842;50.904;6.670;2023-03-31T21:43:14;11.60;99.90
15481;DHT22;7842;50.904;6.670;2023-03-31T21:45:40;11.30;99.90
15481;DHT22;7842;50.904;6.670;2023-03-31T21:48:07;11.30;99.90
15481;DHT22;7842;50.904;6.670;2023-03-31T21:50:37;12.70;99.90
15481;DHT22;7842;50.904;6.670;2023-03-31T21:53:05;11.30;99.90
15481;DHT22;7842;50.904;6.670;2023-03-31T21:55:33;11.30;99.90
15481;DHT22;7842;50.904;6.670;2023-03-31T21:57:59;11.50;99.90
15481;DHT22;7842;50.904;6.670;2023-03-31T22:00:25;11.20;99.90
15481;DHT22;7842;50.904;6.670;2023-03-31T22:02:55;11.20;99.90
15481;DHT22;7842;50.904;6.670;2023-03-31T22:07:47;11.30;99.90
15481;DHT22;7842;50.904;6.670;2023-03-31T22:12:39;11.20;99.90
15481;DHT22;7842;50.904;6.670;2023-03-31T22:15:05;11.20;99.90
15481;DHT22;7842;50.904;6.670;2023-03-31T22:17:31;11.10;99.90
15481;DHT22;7842;50.904;6.670;2023-03-31T22:19:57;11.00;99.90
15481;DHT22;7842;50.904;6.670;2023-03-31T22:22:23;12.10;99.90
15481;DHT22;7842;50.904;6.670;2023-03-31T22:24:49;13.30;99.90
15481;DHT22;7842;50.904;6.670;2023-03-31T22:27:15;11.00;99.90
15481;DHT22;7842;50.904;6.670;2023-03-31T22:32:07;11.10;99.90
15481;DHT22;7842;50.904;6.670;2023-03-31T22:34:32;12.40;99.90
15481;DHT22;7842;50.904;6.670;2023-03-31T22:36:58;11.20;99.90
15481;DHT22;7842;50.904;6.670;2023-03-31T22:39:26;11.10;99.90
15481;DHT22;7842;50.904;6.670;2023-03-31T22:49:15;11.20;99.90
15481;DHT22;7842;50.904;6.670;2023-03-31T22:51:41;11.10;99.90
15481;DHT22;7842;50.904;6.670;2023-03-31T22:54:13;11.10;99.90
15481;DHT22;7842;50.904;6.670;2023-03-31T22:59:07;11.10;99.90
15481;DHT22;7842;50.904;6.670;2023-03-31T23:01:33;11.10;99.90
15481;DHT22;7842;50.904;6.670;2023-03-31T23:06:28;11.10;99.90
15481;DHT22;7842;50.904;6.670;2023-03-31T23:08:56;11.10;99.90
15481;DHT22;7842;50.904;6.670;2023-03-31T23:18:52;11.10;99.90
15481;DHT22;7842;50.904;6.670;2023-03-31T23:21:20;11.10;99.90
15481;DHT22;7842;50.904;6.670;2023-03-31T23:23:49;11.10;99.90
15481;DHT22;7842;50.904;6.670;2023-03-31T23:26:16;12.70;99.90
15481;DHT22;7842;50.904;6.670;2023-03-31T23:28:44;10.80;99.90
15481;DHT22;7842;50.904;6.670;2023-03-31T23:31:13;10.80;99.90
15481;DHT22;7842;50.904;6.670;2023-03-31T23:40:59;10.90;99.90
15481;DHT22;7842;50.904;6.670;2023-03-31T23:43:25;10.80;99.90
15481;DHT22;7842;50.904;6.670;2023-03-31T23:53:11;10.90;99.90
